createdAt,value
2023-03-01T00:02:07.870Z,100166.05
2023-03-01T00:05:20.357Z,100163.36
2023-03-01T00:08:33.865Z,100161.66
2023-03-01T00:11:47.442Z,100158.28
2023-03-01T00:14:59.348Z,100172.32
2023-03-01T00:18:11.635Z,100167.28
2023-03-01T00:21:24.754Z,100162.19
2023-03-01T00:24:36.814Z,100154.50
2023-03-01T00:27:50.201Z,100153.67
2023-03-01T00:31:03.042Z,100152.92
2023-03-01T00:34:16.456Z,100152.13
2023-03-01T00:37:29.031Z,100149.53
2023-03-01T00:40:42.724Z,100157.41
2023-03-01T00:43:56.197Z,100155.79
2023-03-01T00:47:08.069Z,100153.23
2023-03-01T00:50:21.804Z,100143.69
2023-03-01T00:53:33.767Z,100138.48
2023-03-01T00:56:45.908Z,100141.95
2023-03-01T00:59:58.088Z,100129.93
2023-03-01T01:03:11.653Z,100131.70
2023-03-01T01:06:27.548Z,100128.31
2023-03-01T01:09:39.731Z,100123.11
2023-03-01T01:12:52.880Z,100115.27
2023-03-01T01:16:09.811Z,100108.07
2023-03-01T01:19:22.823Z,100113.70
2023-03-01T01:22:35.039Z,100109.29
2023-03-01T01:25:47.272Z,100111.81
2023-03-01T01:29:00.373Z,100112.88
2023-03-01T01:32:13.717Z,100117.49
2023-03-01T01:35:25.925Z,100112.41
2023-03-01T01:38:38.328Z,100110.00
2023-03-01T01:41:50.883Z,100107.40
2023-03-01T01:45:42.509Z,100106.64
2023-03-01T01:48:59.696Z,100092.92
2023-03-01T01:52:18.984Z,100091.31
2023-03-01T01:55:34.114Z,100096.76
2023-03-01T01:58:48.696Z,100093.47
2023-03-01T02:02:02.003Z,100097.63
2023-03-01T02:05:20.281Z,100103.87
2023-03-01T02:08:36.181Z,100102.93
2023-03-01T02:11:50.230Z,100089.97
2023-03-01T02:15:02.257Z,100085.71
2023-03-01T02:18:18.331Z,100094.34
2023-03-01T02:21:50.629Z,100089.11
2023-03-01T02:25:14.016Z,100101.27
2023-03-01T02:28:47.932Z,100104.04
2023-03-01T02:32:03.574Z,100096.07
2023-03-01T02:35:19.915Z,100113.63
2023-03-01T02:38:33.225Z,100114.50
2023-03-01T02:41:50.217Z,100113.63
2023-03-01T02:45:02.729Z,100113.63
2023-03-01T02:48:15.467Z,100111.80
2023-03-01T02:51:47.627Z,100107.53
2023-03-01T02:55:05.949Z,100105.07
2023-03-01T02:58:18.653Z,100105.07
2023-03-01T03:01:32.774Z,100108.60
2023-03-01T03:04:45.064Z,100105.97
2023-03-01T03:07:57.623Z,100105.87
2023-03-01T03:11:10.138Z,100105.01
2023-03-01T03:14:24.619Z,100076.80
2023-03-01T03:17:37.011Z,100097.31
2023-03-01T03:20:52.469Z,100095.64
2023-03-01T03:24:04.639Z,100090.48
2023-03-01T03:27:16.684Z,100083.56
2023-03-01T03:30:30.503Z,100094.78
2023-03-01T03:33:42.495Z,100099.78
2023-03-01T03:36:57.277Z,100091.84
2023-03-01T03:40:12.522Z,100088.31
2023-03-01T03:43:27.045Z,100077.16
2023-03-01T03:46:39.044Z,100080.63
2023-03-01T03:49:50.949Z,100083.19
2023-03-01T03:53:02.863Z,100085.85
2023-03-01T03:56:15.947Z,100089.48
2023-03-01T03:59:28.044Z,100099.91
2023-03-01T04:02:40.166Z,100101.77
2023-03-01T04:05:53.229Z,100101.88
2023-03-01T04:09:07.090Z,100094.88
2023-03-01T04:12:21.542Z,100092.22
2023-03-01T04:15:34.249Z,100100.91
2023-03-01T04:18:46.339Z,100095.84
2023-03-01T04:21:58.195Z,100092.50
2023-03-01T04:25:13.197Z,100093.44
2023-03-01T04:28:25.696Z,100100.39
2023-03-01T04:31:37.789Z,100099.50
2023-03-01T04:34:50.185Z,100100.48
2023-03-01T04:38:02.199Z,100093.53
2023-03-01T04:41:16.376Z,100098.72
2023-03-01T04:44:28.303Z,100094.42
2023-03-01T04:47:40.257Z,100091.05
2023-03-01T04:50:52.169Z,100079.72
2023-03-01T04:54:04.612Z,100083.20
2023-03-01T04:57:16.752Z,100082.41
2023-03-01T05:00:31.028Z,100076.28
2023-03-01T05:03:43.571Z,100076.16
2023-03-01T05:06:59.888Z,100066.64
2023-03-01T05:10:14.609Z,100070.00
2023-03-01T05:13:29.833Z,100067.34
2023-03-01T05:16:42.917Z,100072.63
2023-03-01T05:19:56.666Z,100068.41
2023-03-01T05:23:09.060Z,100058.91
2023-03-01T05:26:28.730Z,100060.61
2023-03-01T05:29:40.629Z,100063.95
2023-03-01T05:32:56.972Z,100065.61
2023-03-01T05:36:11.078Z,100071.61
2023-03-01T05:39:23.186Z,100075.90
2023-03-01T05:42:35.191Z,100088.15
2023-03-01T05:45:48.793Z,100084.05
2023-03-01T05:49:01.254Z,100093.56
2023-03-01T05:52:13.276Z,100091.73
2023-03-01T05:55:29.075Z,100087.28
2023-03-01T05:58:42.376Z,100094.88
2023-03-01T06:01:54.552Z,100076.33
2023-03-01T06:05:06.678Z,100082.79
2023-03-01T06:08:21.253Z,100078.72
2023-03-01T06:11:33.356Z,100084.39
2023-03-01T06:14:45.451Z,100064.95
2023-03-01T06:18:00.445Z,100055.84
2023-03-01T06:21:14.805Z,100069.25
2023-03-01T06:24:26.998Z,100066.44
2023-03-01T06:27:39.130Z,100069.91
2023-03-01T06:30:51.377Z,100071.27
2023-03-01T06:34:03.518Z,100076.95
2023-03-01T06:37:16.594Z,100069.88
2023-03-01T06:40:28.978Z,100059.94
2023-03-01T06:43:40.964Z,100066.41
2023-03-01T06:46:52.926Z,100069.61
2023-03-01T06:50:05.421Z,100062.27
2023-03-01T06:53:17.341Z,100054.20
2023-03-01T06:56:29.532Z,100066.66
2023-03-01T06:59:41.725Z,100051.78
2023-03-01T07:02:53.803Z,100048.09
2023-03-01T07:06:05.975Z,100046.80
2023-03-01T07:09:19.963Z,100035.42
2023-03-01T07:12:32.253Z,100038.14
2023-03-01T07:15:45.327Z,100018.08
2023-03-01T07:18:59.241Z,100011.70
2023-03-01T07:22:12.841Z,100009.45
2023-03-01T07:25:25.009Z,99993.06
2023-03-01T07:28:39.552Z,99982.17
2023-03-01T07:31:51.916Z,99969.67
2023-03-01T07:35:04.063Z,99967.42
2023-03-01T07:38:16.002Z,99966.46
2023-03-01T07:41:28.663Z,99964.14
2023-03-01T07:44:40.578Z,99965.54
2023-03-01T07:47:53.929Z,99964.15
2023-03-01T07:51:09.026Z,99978.06
2023-03-01T07:54:21.187Z,99983.41
2023-03-01T07:57:33.764Z,100005.32
2023-03-01T08:00:46.157Z,100000.08
2023-03-01T08:03:58.127Z,100007.79
2023-03-01T08:07:11.378Z,99997.44
2023-03-01T08:10:24.345Z,100003.11
2023-03-01T08:13:37.251Z,99997.47
2023-03-01T08:16:49.808Z,99987.17
2023-03-01T08:20:02.003Z,99981.20
2023-03-01T08:23:14.119Z,99964.75
2023-03-01T08:26:27.862Z,99966.40
2023-03-01T08:29:40.660Z,99968.38
2023-03-01T08:32:52.887Z,99956.83
2023-03-01T08:36:13.398Z,99961.96
2023-03-01T08:39:27.002Z,99948.55
2023-03-01T08:42:39.637Z,99947.66
2023-03-01T08:45:51.712Z,99941.41
2023-03-01T08:49:05.429Z,99930.33
2023-03-01T08:52:17.400Z,99934.39
2023-03-01T08:55:29.387Z,99934.70
2023-03-01T08:58:41.926Z,99929.06
2023-03-01T09:01:54.112Z,99947.12
2023-03-01T09:05:06.371Z,99942.27
2023-03-01T09:08:18.539Z,99937.33
2023-03-01T09:11:31.013Z,99938.78
2023-03-01T09:14:43.948Z,99934.97
2023-03-01T09:17:55.979Z,99933.91
2023-03-01T09:21:13.122Z,99929.91
2023-03-01T09:24:26.733Z,99929.05
2023-03-01T09:27:38.815Z,99924.34
2023-03-01T09:30:51.011Z,99919.96
2023-03-01T09:34:03.694Z,99924.83
2023-03-01T09:37:16.156Z,99913.81
2023-03-01T09:40:31.678Z,99919.03
2023-03-01T09:43:55.348Z,99916.84
2023-03-01T09:47:09.769Z,99911.10
2023-03-01T09:50:25.774Z,99914.47
2023-03-01T09:53:41.127Z,99921.16
2023-03-01T09:57:09.735Z,99920.75
2023-03-01T10:00:44.347Z,99919.28
2023-03-01T10:04:09.252Z,99915.84
2023-03-01T10:07:34.614Z,99909.73
2023-03-01T10:10:51.533Z,99910.17
2023-03-01T10:14:10.601Z,99909.24
2023-03-01T10:17:31.689Z,99919.59
2023-03-01T10:20:51.408Z,99915.47
2023-03-01T10:24:09.029Z,99911.75
2023-03-01T10:27:26.930Z,99906.05
2023-03-01T10:30:45.024Z,99898.70
2023-03-01T10:33:58.131Z,99905.64
2023-03-01T10:37:22.007Z,99889.59
2023-03-01T10:40:34.630Z,99901.91
2023-03-01T10:43:54.915Z,99895.03
2023-03-01T10:47:09.576Z,99895.66
2023-03-01T10:50:29.600Z,99893.63
2023-03-01T10:53:45.747Z,99890.25
2023-03-01T10:57:00.812Z,99892.46
2023-03-01T11:00:33.979Z,99890.45
2023-03-01T11:03:46.900Z,99892.99
2023-03-01T11:07:06.879Z,99876.31
2023-03-01T11:10:27.479Z,99865.50
2023-03-01T11:13:39.733Z,99868.20
2023-03-01T11:16:54.748Z,99867.09
2023-03-01T11:20:22.675Z,99866.00
2023-03-01T11:23:37.777Z,99865.30
2023-03-01T11:26:55.547Z,99862.31
2023-03-01T11:30:13.060Z,99856.92
2023-03-01T11:33:34.172Z,99854.23
2023-03-01T11:36:51.744Z,99843.88
2023-03-01T11:40:20.869Z,99852.00
2023-03-01T11:43:41.316Z,99842.66
2023-03-01T11:47:29.184Z,99843.66
2023-03-01T11:50:47.566Z,99833.78
2023-03-01T11:54:22.181Z,99819.84
2023-03-01T11:57:50.609Z,99830.80
2023-03-01T12:01:34.669Z,99822.48
2023-03-01T12:05:21.191Z,99814.88
2023-03-01T12:08:39.173Z,99820.27
2023-03-01T12:12:11.652Z,99815.43
2023-03-01T12:15:56.624Z,99807.09
2023-03-01T12:19:46.359Z,99804.56
2023-03-01T12:23:35.952Z,99795.00
2023-03-01T12:26:55.342Z,99800.28
2023-03-01T12:30:18.588Z,99806.50
2023-03-01T12:33:39.734Z,99802.34
2023-03-01T12:37:07.493Z,99804.72
2023-03-01T12:40:47.347Z,99770.40
2023-03-01T12:44:12.510Z,99780.78
2023-03-01T12:47:40.607Z,99780.02
2023-03-01T12:50:56.929Z,99774.48
2023-03-01T12:54:17.338Z,99769.84
2023-03-01T12:57:38.198Z,99776.87
2023-03-01T13:00:57.499Z,99772.98
2023-03-01T13:04:41.356Z,99761.98
2023-03-01T13:08:00.595Z,99776.02
2023-03-01T13:11:20.621Z,99765.75
2023-03-01T13:14:52.026Z,99764.38
2023-03-01T13:18:06.629Z,99772.20
2023-03-01T13:21:19.245Z,99768.73
2023-03-01T13:24:39.016Z,99767.98
2023-03-01T13:27:52.167Z,99771.26
2023-03-01T13:31:04.781Z,99767.77
2023-03-01T13:35:00.711Z,99764.17
2023-03-01T13:38:43.996Z,99760.47
2023-03-01T13:42:01.434Z,99748.55
2023-03-01T13:45:40.341Z,99749.09
2023-03-01T13:48:57.578Z,99740.60
2023-03-01T13:52:19.221Z,99745.52
2023-03-01T13:55:38.257Z,99738.00
2023-03-01T13:59:09.744Z,99731.10
2023-03-01T14:02:22.415Z,99723.91
2023-03-01T14:05:34.575Z,99722.73
2023-03-01T14:08:49.753Z,99717.54
2023-03-01T14:12:27.931Z,99721.36
2023-03-01T14:15:45.017Z,99720.31
2023-03-01T14:19:00.468Z,99723.28
2023-03-01T14:22:22.261Z,99711.24
2023-03-01T14:25:36.808Z,99710.36
2023-03-01T14:28:50.946Z,99709.89
2023-03-01T14:32:15.056Z,99715.66
2023-03-01T14:35:32.601Z,99721.45
2023-03-01T14:38:47.859Z,99709.84
2023-03-01T14:42:10.502Z,99723.05
2023-03-01T14:45:19.863Z,99723.84
2023-03-01T14:48:34.345Z,99720.80
2023-03-01T14:51:51.732Z,99717.30
2023-03-01T14:55:04.147Z,99724.98
2023-03-01T14:58:22.818Z,99723.33
2023-03-01T15:01:35.468Z,99716.55
2023-03-01T15:04:48.774Z,99716.46
2023-03-01T15:08:01.948Z,99717.88
2023-03-01T15:11:27.904Z,99722.61
2023-03-01T15:15:01.563Z,99718.19
2023-03-01T15:18:06.300Z,99718.66
2023-03-01T15:21:25.936Z,99717.69
2023-03-01T15:24:38.747Z,99717.39
2023-03-01T15:27:55.887Z,99719.48
2023-03-01T15:31:10.146Z,99721.16
2023-03-01T15:34:33.130Z,99716.88
2023-03-01T15:37:54.660Z,99714.59
2023-03-01T15:41:09.979Z,99717.66
2023-03-01T15:44:42.665Z,99721.10
2023-03-01T15:47:53.774Z,99717.20
2023-03-01T15:51:07.389Z,99709.94
2023-03-01T15:54:24.484Z,99717.75
2023-03-01T15:57:34.750Z,99717.94
2023-03-01T16:00:59.963Z,99717.11
2023-03-01T16:04:03.258Z,99717.03
2023-03-01T16:07:15.964Z,99715.08
2023-03-01T16:10:29.794Z,99723.74
2023-03-01T16:13:41.829Z,99731.11
2023-03-01T16:16:54.535Z,99730.00
2023-03-01T16:20:06.623Z,99735.74
2023-03-01T16:23:19.882Z,99734.56
2023-03-01T16:26:32.285Z,99738.28
2023-03-01T16:29:44.362Z,99739.52
2023-03-01T16:32:58.083Z,99730.73
2023-03-01T16:36:17.219Z,99748.69
2023-03-01T16:39:29.682Z,99751.71
2023-03-01T16:42:44.378Z,99753.80
2023-03-01T16:45:56.553Z,99760.08
2023-03-01T16:49:08.675Z,99747.94
2023-03-01T16:52:20.729Z,99754.49
2023-03-01T16:55:32.727Z,99747.86
2023-03-01T16:58:46.864Z,99752.56
2023-03-01T17:01:58.845Z,99752.73
2023-03-01T17:05:12.900Z,99749.55
2023-03-01T17:08:25.382Z,99754.33
2023-03-01T17:11:37.510Z,99752.08
2023-03-01T17:14:50.911Z,99755.30
2023-03-01T17:18:03.918Z,99759.77
2023-03-01T17:21:17.644Z,99765.45
2023-03-01T17:24:30.553Z,99768.81
2023-03-01T17:27:43.015Z,99764.13
2023-03-01T17:30:55.643Z,99761.43
2023-03-01T17:34:08.212Z,99765.84
2023-03-01T17:37:20.931Z,99766.27
2023-03-01T17:40:33.196Z,99756.98
2023-03-01T17:43:45.555Z,99762.59
2023-03-01T17:46:57.561Z,99758.45
2023-03-01T18:05:24.909Z,99761.52
2023-03-01T18:27:01.185Z,99771.84
2023-03-01T18:30:18.075Z,99770.08
2023-03-01T18:33:30.472Z,99761.16
2023-03-01T18:36:47.957Z,99763.45
2023-03-01T18:40:00.264Z,99760.05
2023-03-01T18:43:12.587Z,99748.17
2023-03-01T18:46:25.106Z,99751.28
2023-03-01T18:49:38.036Z,99754.94
2023-03-01T18:52:50.435Z,99743.98
2023-03-01T18:56:07.754Z,99741.36
2023-03-01T18:59:19.966Z,99741.11
2023-03-01T19:02:33.002Z,99740.41
2023-03-01T19:05:48.285Z,99747.50
2023-03-01T19:09:02.109Z,99748.36
2023-03-01T19:12:14.966Z,99738.55
2023-03-01T19:15:27.322Z,99743.13
2023-03-01T19:18:41.153Z,99739.00
2023-03-01T19:22:04.888Z,99743.11
2023-03-01T19:25:08.010Z,99742.31
2023-03-01T19:28:20.162Z,99736.22
2023-03-01T19:31:36.007Z,99739.70
2023-03-01T19:38:21.662Z,99742.94
2023-03-01T19:41:34.407Z,99746.18
2023-03-01T19:44:48.699Z,99741.62
2023-03-01T19:48:01.352Z,99744.75
2023-03-01T19:51:14.452Z,99756.58
2023-03-01T19:58:06.254Z,99754.84
2023-03-01T20:01:28.454Z,99761.23
2023-03-01T20:04:41.299Z,99761.02
2023-03-01T20:07:53.511Z,99763.48
2023-03-01T20:11:14.312Z,99762.63
2023-03-01T20:14:26.836Z,99761.02
2023-03-01T20:17:39.973Z,99761.23
2023-03-01T20:20:56.564Z,99765.78
2023-03-01T20:24:09.572Z,99766.00
2023-03-01T20:27:22.365Z,99761.45
2023-03-01T20:30:34.616Z,99764.13
2023-03-01T20:33:47.015Z,99763.39
2023-03-01T20:36:59.251Z,99760.63
2023-03-01T20:40:14.598Z,99765.78
2023-03-01T20:43:26.741Z,99755.43
2023-03-01T20:46:39.943Z,99758.38
2023-03-01T20:49:54.273Z,99756.09
2023-03-01T20:53:06.604Z,99757.30
2023-03-01T20:56:21.989Z,99755.99
2023-03-01T20:59:49.707Z,99762.81
2023-03-01T21:03:04.058Z,99752.98
2023-03-01T21:06:17.273Z,99757.59
2023-03-01T21:09:29.405Z,99758.78
2023-03-01T21:12:41.453Z,99766.83
2023-03-01T21:16:03.407Z,99758.31
2023-03-01T21:19:15.439Z,99761.06
2023-03-01T21:22:28.594Z,99762.67
2023-03-01T21:25:40.970Z,99759.00
2023-03-01T21:28:55.110Z,99764.22
2023-03-01T21:32:07.315Z,99764.34
2023-03-01T21:35:19.742Z,99765.42
2023-03-01T21:38:32.024Z,99752.80
2023-03-01T21:41:45.693Z,99771.81
2023-03-01T21:44:57.692Z,99766.73
2023-03-01T21:48:09.901Z,99759.09
2023-03-01T21:51:25.371Z,99756.73
2023-03-01T21:54:38.891Z,99755.80
2023-03-01T21:57:51.099Z,99755.27
2023-03-01T22:01:06.637Z,99762.33
2023-03-01T22:04:20.092Z,99756.17
2023-03-01T22:07:32.453Z,99751.58
2023-03-01T22:10:47.910Z,99755.88
2023-03-01T22:14:01.672Z,99752.27
2023-03-01T22:17:13.891Z,99752.47
2023-03-01T22:20:27.063Z,99751.83
2023-03-01T22:23:40.169Z,99751.84
2023-03-01T22:26:54.372Z,99755.61
2023-03-01T22:30:06.473Z,99755.80
2023-03-01T22:33:18.611Z,99754.26
2023-03-01T22:36:31.350Z,99757.91
2023-03-01T22:39:43.642Z,99758.22
2023-03-01T22:42:57.186Z,99757.56
2023-03-01T22:46:20.165Z,99751.56
2023-03-01T22:49:32.609Z,99754.33
2023-03-01T22:52:44.580Z,99755.21
2023-03-01T22:55:56.524Z,99737.72
2023-03-01T22:59:12.646Z,99750.38
2023-03-01T23:02:25.442Z,99755.61
2023-03-01T23:05:37.617Z,99742.38
2023-03-01T23:08:52.909Z,99746.10
2023-03-01T23:12:09.233Z,99743.63
2023-03-01T23:15:21.424Z,99743.91
2023-03-01T23:18:33.603Z,99747.50
2023-03-01T23:21:48.148Z,99752.73
2023-03-01T23:25:09.951Z,99756.13
2023-03-01T23:28:21.847Z,99747.33
2023-03-01T23:31:33.844Z,99743.00
2023-03-01T23:35:04.300Z,99745.59
2023-03-01T23:38:16.332Z,99740.34
2023-03-01T23:41:32.069Z,99738.77
2023-03-01T23:44:45.634Z,99744.20
2023-03-01T23:47:58.171Z,99751.60
2023-03-01T23:51:13.550Z,99745.37
2023-03-01T23:54:28.248Z,99751.84
2023-03-01T23:57:40.185Z,99745.66
